createdAt,value
2023-05-11T00:01:15.540Z,100080.00
2023-05-11T00:04:19.683Z,100083.53
2023-05-11T00:07:22.508Z,100077.41
2023-05-11T00:10:25.222Z,100076.59
2023-05-11T00:13:27.964Z,100084.81
2023-05-11T00:16:31.066Z,100076.84
2023-05-11T00:19:35.080Z,100074.13
2023-05-11T00:22:37.735Z,100076.06
2023-05-11T00:25:40.684Z,100070.66
2023-05-11T00:28:43.380Z,100068.69
2023-05-11T00:31:48.003Z,100068.88
2023-05-11T00:34:52.083Z,100068.81
2023-05-11T00:37:54.756Z,100066.97
2023-05-11T00:40:57.403Z,100057.22
2023-05-11T00:44:00.050Z,100057.06
2023-05-11T00:47:03.062Z,100058.91
2023-05-11T00:50:09.327Z,100057.16
2023-05-11T00:53:13.589Z,100054.34
2023-05-11T00:56:16.451Z,100049.88
2023-05-11T00:59:19.770Z,100054.50
2023-05-11T01:02:22.592Z,100048.38
2023-05-11T01:05:33.226Z,100054.59
2023-05-11T01:08:43.047Z,100055.75
2023-05-11T01:11:52.668Z,100063.81
2023-05-11T01:15:02.676Z,100047.59
2023-05-11T01:18:16.206Z,100051.34
2023-05-11T01:21:20.411Z,100047.66
2023-05-11T01:24:38.643Z,100052.56
2023-05-11T01:27:58.268Z,100044.50
2023-05-11T01:31:10.040Z,100048.97
2023-05-11T01:34:15.995Z,100048.09
2023-05-11T01:37:22.518Z,100049.19
2023-05-11T01:40:33.010Z,100051.91
2023-05-11T01:43:37.730Z,100047.56
2023-05-11T01:46:50.081Z,100046.91
2023-05-11T01:49:54.700Z,100052.50
2023-05-11T01:52:57.840Z,100054.44
2023-05-11T01:56:03.009Z,100043.56
2023-05-11T01:59:06.827Z,100054.44
2023-05-11T02:02:12.274Z,100042.97
2023-05-11T02:05:19.512Z,100052.19
2023-05-11T02:08:23.077Z,100046.78
2023-05-11T02:11:28.951Z,100047.72
2023-05-11T02:14:34.943Z,100056.81
2023-05-11T02:17:40.596Z,100050.78
2023-05-11T02:20:45.539Z,100047.09
2023-05-11T02:23:49.955Z,100041.69
2023-05-11T02:26:53.199Z,100043.66
2023-05-11T02:29:55.981Z,100040.06
2023-05-11T02:33:07.643Z,100043.84
2023-05-11T02:36:11.377Z,100045.75
2023-05-11T02:39:18.402Z,100046.63
2023-05-11T02:42:23.333Z,100046.97
2023-05-11T02:45:32.040Z,100045.22
2023-05-11T02:48:41.621Z,100040.97
2023-05-11T02:51:46.858Z,100037.31
2023-05-11T02:54:51.417Z,100047.25
2023-05-11T02:57:55.188Z,100047.25
2023-05-11T03:00:58.689Z,100046.50
2023-05-11T03:04:05.730Z,100047.44
2023-05-11T03:07:09.792Z,100045.84
2023-05-11T03:10:12.525Z,100044.88
2023-05-11T03:13:16.637Z,100036.03
2023-05-11T03:16:21.260Z,100039.75
2023-05-11T03:19:27.705Z,100037.03
2023-05-11T03:22:32.675Z,100046.00
2023-05-11T03:25:36.332Z,100049.72
2023-05-11T03:28:40.045Z,100047.09
2023-05-11T03:31:42.757Z,100043.50
2023-05-11T03:34:46.852Z,100037.13
2023-05-11T03:37:51.265Z,100038.00
2023-05-11T03:40:55.884Z,100038.84
2023-05-11T03:44:01.319Z,100041.44
2023-05-11T03:47:05.520Z,100042.31
2023-05-11T03:50:10.884Z,100035.16
2023-05-11T03:53:16.710Z,100038.66
2023-05-11T03:56:19.489Z,100037.69
2023-05-11T03:59:22.323Z,100037.56
2023-05-11T04:02:25.309Z,100027.88
2023-05-11T04:05:29.418Z,100037.22
2023-05-11T04:08:39.309Z,100037.84
2023-05-11T04:11:41.930Z,100039.47
2023-05-11T04:14:44.638Z,100031.47
2023-05-11T04:17:47.373Z,100030.50
2023-05-11T04:20:51.452Z,100032.13
2023-05-11T04:23:54.099Z,100036.66
2023-05-11T04:26:57.554Z,100030.19
2023-05-11T04:30:00.239Z,100027.41
2023-05-11T04:33:03.620Z,100027.25
2023-05-11T04:36:11.195Z,100037.91
2023-05-11T04:39:14.756Z,100043.34
2023-05-11T04:42:18.045Z,100031.47
2023-05-11T04:45:20.878Z,100036.81
2023-05-11T04:48:23.556Z,100042.50
2023-05-11T04:51:27.597Z,100041.59
2023-05-11T04:54:31.140Z,100034.97
2023-05-11T04:57:34.671Z,100040.94
2023-05-11T05:00:37.489Z,100041.31
2023-05-11T05:03:40.806Z,100039.41
2023-05-11T05:06:44.877Z,100040.97
2023-05-11T05:09:47.635Z,100038.91
2023-05-11T05:12:50.455Z,100041.53
2023-05-11T05:15:53.110Z,100045.75
2023-05-11T05:18:55.877Z,100050.13
2023-05-11T05:22:00.150Z,100044.38
2023-05-11T05:25:03.028Z,100056.72
2023-05-11T05:28:05.770Z,100048.22
2023-05-11T05:31:08.522Z,100045.28
2023-05-11T05:34:11.853Z,100057.63
2023-05-11T05:37:17.231Z,100051.03
2023-05-11T05:40:20.470Z,100052.47
2023-05-11T05:43:23.416Z,100035.63
2023-05-11T05:46:26.133Z,100025.50
2023-05-11T05:49:28.873Z,100056.69
2023-05-11T05:52:32.844Z,100066.19
2023-05-11T05:55:35.520Z,100064.84
2023-05-11T05:58:38.296Z,100057.06
2023-05-11T06:01:45.565Z,100064.69
2023-05-11T06:04:48.285Z,100063.94
2023-05-11T06:08:08.457Z,100067.00
2023-05-11T06:11:12.272Z,100069.97
2023-05-11T06:14:15.062Z,100063.09
2023-05-11T06:17:20.809Z,100073.53
2023-05-11T06:20:24.291Z,100074.81
2023-05-11T06:23:28.441Z,100070.91
2023-05-11T06:26:31.111Z,100073.06
2023-05-11T06:29:33.848Z,100069.88
2023-05-11T06:32:36.560Z,100069.22
2023-05-11T06:35:39.626Z,100061.19
2023-05-11T06:38:43.783Z,100055.06
2023-05-11T06:41:46.517Z,100061.31
2023-05-11T06:44:49.210Z,100059.75
2023-05-11T06:47:51.990Z,100046.59
2023-05-11T06:50:54.708Z,100049.00
2023-05-11T06:53:58.773Z,100049.47
2023-05-11T06:57:03.579Z,100050.81
2023-05-11T07:00:07.803Z,100049.47
2023-05-11T07:03:10.541Z,100047.41
2023-05-11T07:06:13.477Z,100056.22
2023-05-11T07:09:17.656Z,100057.28
2023-05-11T07:12:20.401Z,100056.66
2023-05-11T07:15:23.482Z,100059.88
2023-05-11T07:18:26.170Z,100061.19
2023-05-11T07:21:28.917Z,100059.69
2023-05-11T07:24:33.018Z,100060.78
2023-05-11T07:27:35.828Z,100054.72
2023-05-11T07:30:38.611Z,100061.81
2023-05-11T07:33:41.311Z,100057.69
2023-05-11T07:36:43.961Z,100058.13
2023-05-11T07:39:48.083Z,100064.91
2023-05-11T07:42:51.025Z,100055.41
2023-05-11T07:45:59.912Z,100050.06
2023-05-11T07:49:14.636Z,100061.13
2023-05-11T07:52:23.115Z,100056.00
2023-05-11T07:55:27.917Z,100058.28
2023-05-11T07:58:30.653Z,100047.78
2023-05-11T08:01:33.450Z,100048.22
2023-05-11T08:04:36.416Z,100046.91
2023-05-11T08:07:41.199Z,100046.03
2023-05-11T08:10:45.961Z,100040.22
2023-05-11T08:13:48.612Z,100050.38
2023-05-11T08:16:52.519Z,100050.59
2023-05-11T08:19:57.781Z,100042.69
2023-05-11T08:23:04.111Z,100051.19
2023-05-11T08:26:08.281Z,100051.97
2023-05-11T08:29:12.548Z,100051.81
2023-05-11T08:32:18.318Z,100050.50
2023-05-11T08:35:21.710Z,100049.28
2023-05-11T08:38:25.016Z,100045.34
2023-05-11T08:41:29.702Z,100042.13
2023-05-11T08:44:34.120Z,100052.59
2023-05-11T08:47:38.007Z,100051.41
2023-05-11T08:50:40.793Z,100049.97
2023-05-11T08:53:43.553Z,100049.28
2023-05-11T08:56:49.126Z,100052.19
2023-05-11T08:59:53.095Z,100053.22
2023-05-11T09:02:57.562Z,100047.00
2023-05-11T09:06:02.752Z,100046.31
2023-05-11T09:09:05.550Z,100042.72
2023-05-11T09:12:10.861Z,100037.31
2023-05-11T09:15:13.658Z,100044.81
2023-05-11T09:18:18.763Z,100047.69
2023-05-11T09:21:21.565Z,100035.22
2023-05-11T09:24:24.296Z,100030.75
2023-05-11T09:27:28.327Z,100033.09
2023-05-11T09:30:30.985Z,100041.09
2023-05-11T09:33:33.725Z,100039.34
2023-05-11T09:36:36.449Z,100038.28
2023-05-11T09:39:52.773Z,100039.03
2023-05-11T09:43:03.636Z,100029.53
2023-05-11T09:46:08.000Z,100028.75
2023-05-11T09:49:11.956Z,100029.47
2023-05-11T09:52:18.668Z,100030.22
2023-05-11T09:55:27.601Z,100026.94
2023-05-11T09:58:49.140Z,100025.03
2023-05-11T10:01:51.894Z,100025.38
2023-05-11T10:04:56.409Z,100024.84
2023-05-11T10:08:00.133Z,100026.34
2023-05-11T10:11:03.848Z,100031.69
2023-05-11T10:14:09.862Z,100019.84
2023-05-11T10:17:14.586Z,100009.66
2023-05-11T10:20:17.932Z,100013.25
2023-05-11T10:23:22.250Z,100020.56
2023-05-11T10:26:26.500Z,100021.16
2023-05-11T10:29:31.294Z,100018.28
2023-05-11T10:32:37.947Z,100015.13
2023-05-11T10:35:41.684Z,100001.72
2023-05-11T10:38:46.781Z,100011.63
2023-05-11T10:42:03.030Z,100007.94
2023-05-11T10:45:17.012Z,99997.44
2023-05-11T10:48:54.888Z,100004.28
2023-05-11T10:52:17.298Z,99999.88
2023-05-11T10:55:28.660Z,99991.56
2023-05-11T10:58:47.083Z,99994.91
2023-05-11T11:01:54.880Z,99996.09
2023-05-11T11:04:58.933Z,100002.69
2023-05-11T11:08:04.032Z,99992.81
2023-05-11T11:11:29.939Z,100001.13
2023-05-11T11:14:56.515Z,99992.06
2023-05-11T11:18:24.659Z,99998.31
2023-05-11T11:21:41.199Z,99987.22
2023-05-11T11:24:45.902Z,99990.66
2023-05-11T11:28:00.013Z,99992.16
2023-05-11T11:31:24.408Z,99985.66
2023-05-11T11:34:38.868Z,99988.84
2023-05-11T11:38:02.120Z,99987.16
2023-05-11T11:41:09.207Z,99986.44
2023-05-11T11:44:21.983Z,99987.03
2023-05-11T11:47:26.266Z,99987.75
2023-05-11T11:50:30.781Z,99991.94
2023-05-11T11:54:06.662Z,99987.91
2023-05-11T11:57:44.134Z,99991.41
2023-05-11T12:00:49.129Z,99985.75
2023-05-11T12:04:12.953Z,99984.47
2023-05-11T12:07:21.354Z,99987.63
2023-05-11T12:10:24.217Z,99986.38
2023-05-11T12:13:28.412Z,99983.72
2023-05-11T12:16:33.222Z,99985.44
2023-05-11T12:19:36.732Z,99980.91
2023-05-11T12:22:41.184Z,99984.50
2023-05-11T12:25:43.861Z,99981.84
2023-05-11T12:28:49.684Z,99984.66
2023-05-11T12:31:55.379Z,99992.00
2023-05-11T12:34:59.227Z,99976.88
2023-05-11T12:38:11.995Z,99992.44
2023-05-11T12:41:21.829Z,99986.28
2023-05-11T12:44:26.543Z,99981.84
2023-05-11T12:47:32.816Z,99984.50
2023-05-11T12:50:41.092Z,99977.22
2023-05-11T12:53:45.114Z,99983.97
2023-05-11T12:56:48.888Z,99972.53
2023-05-11T13:00:07.274Z,99970.00
2023-05-11T13:03:11.431Z,99977.97
2023-05-11T13:06:15.748Z,99974.94
2023-05-11T13:09:25.159Z,99977.56
2023-05-11T13:12:32.043Z,99978.09
2023-05-11T13:15:35.528Z,99988.72
2023-05-11T13:18:38.566Z,99985.53
2023-05-11T13:21:41.344Z,99991.25
2023-05-11T13:24:45.549Z,99989.75
2023-05-11T13:27:48.354Z,99986.53
2023-05-11T13:30:52.318Z,99992.00
2023-05-11T13:33:55.334Z,99984.66
2023-05-11T13:36:58.050Z,99984.28
2023-05-11T13:40:02.713Z,99976.56
2023-05-11T13:43:05.760Z,99995.34
2023-05-11T13:46:08.482Z,99991.44
2023-05-11T13:49:11.363Z,99985.72
2023-05-11T13:52:14.261Z,99989.66
2023-05-11T13:55:20.227Z,99987.91
2023-05-11T13:58:23.106Z,99993.28
2023-05-11T14:01:26.456Z,99986.06
2023-05-11T14:04:29.172Z,99989.63
2023-05-11T14:07:45.601Z,99982.13
2023-05-11T14:10:51.000Z,99983.00
2023-05-11T14:13:53.909Z,99981.63
2023-05-11T14:16:56.784Z,99980.59
2023-05-11T14:19:59.459Z,99972.94
2023-05-11T14:23:02.735Z,99976.06
2023-05-11T14:26:06.826Z,99973.09
2023-05-11T14:29:09.566Z,99963.53
2023-05-11T14:32:19.977Z,99959.81
2023-05-11T14:35:23.263Z,99965.16
2023-05-11T14:38:25.951Z,99953.25
2023-05-11T14:41:29.959Z,99956.97
2023-05-11T14:44:32.854Z,99957.84
2023-05-11T14:47:35.680Z,99949.38
2023-05-11T14:50:38.780Z,99952.13
2023-05-11T14:53:41.638Z,99953.59
2023-05-11T14:56:51.241Z,99952.88
2023-05-11T15:00:00.185Z,99953.78
2023-05-11T15:03:04.122Z,99943.91
2023-05-11T15:06:07.529Z,99944.91
2023-05-11T15:09:10.330Z,99941.91
2023-05-11T15:12:14.361Z,99948.13
2023-05-11T15:15:18.258Z,99947.13
2023-05-11T15:18:21.169Z,99951.50
2023-05-11T15:21:23.862Z,99950.63
2023-05-11T15:24:26.549Z,99948.25
2023-05-11T15:27:31.130Z,99946.16
2023-05-11T15:30:33.841Z,99950.91
2023-05-11T15:33:36.609Z,99959.09
2023-05-11T15:36:40.308Z,99955.75
2023-05-11T15:39:43.128Z,99963.31
2023-05-11T15:42:49.036Z,99960.81
2023-05-11T15:45:51.785Z,99966.81
2023-05-11T15:48:55.839Z,99967.06
2023-05-11T15:52:00.292Z,99964.78
2023-05-11T15:55:03.773Z,99951.09
2023-05-11T15:58:09.195Z,99964.78
2023-05-11T16:01:12.095Z,99967.75
2023-05-11T16:04:14.807Z,99963.38
2023-05-11T16:07:17.558Z,99965.75
2023-05-11T16:10:20.534Z,99967.84
2023-05-11T16:13:24.820Z,99966.47
2023-05-11T16:16:28.723Z,99967.19
2023-05-11T16:19:31.495Z,99967.19
2023-05-11T16:22:36.040Z,99964.72
2023-05-11T16:25:38.930Z,99963.03
2023-05-11T16:28:43.746Z,99967.69
2023-05-11T16:31:46.484Z,99974.41
2023-05-11T16:34:49.469Z,99969.38
2023-05-11T16:37:52.520Z,99977.59
2023-05-11T16:40:55.361Z,99978.81
2023-05-11T16:43:59.529Z,99977.84
2023-05-11T16:47:02.194Z,99973.25
2023-05-11T16:50:05.223Z,99973.56
2023-05-11T16:53:08.278Z,99968.34
2023-05-11T16:56:11.826Z,99969.19
2023-05-11T16:59:16.113Z,99966.81
2023-05-11T17:02:20.001Z,99966.94
2023-05-11T17:05:23.137Z,99970.66
2023-05-11T17:08:25.826Z,99972.00
2023-05-11T17:11:29.343Z,99968.59
2023-05-11T17:14:33.504Z,99968.19
2023-05-11T17:17:36.912Z,99972.16
2023-05-11T17:20:39.694Z,99973.59
2023-05-11T17:23:43.525Z,99971.94
2023-05-11T17:26:48.284Z,99974.31
2023-05-11T17:29:52.932Z,99969.66
2023-05-11T17:32:56.285Z,99981.03
2023-05-11T17:35:59.211Z,99981.47
2023-05-11T17:39:02.678Z,99978.94
2023-05-11T17:42:05.732Z,99984.66
2023-05-11T17:45:11.433Z,99984.63
2023-05-11T17:48:14.171Z,99983.94
2023-05-11T17:51:16.986Z,99984.78
2023-05-11T17:54:19.782Z,99993.31
2023-05-11T17:57:25.626Z,99996.16
2023-05-11T18:00:30.092Z,99996.81
2023-05-11T18:03:32.880Z,99999.88
2023-05-11T18:06:36.325Z,99996.28
2023-05-11T18:09:39.007Z,99993.34
2023-05-11T18:12:42.428Z,100001.22
2023-05-11T18:15:47.333Z,99998.94
2023-05-11T18:18:50.123Z,99997.88
2023-05-11T18:21:53.189Z,100002.91
2023-05-11T18:24:55.886Z,100007.31
2023-05-11T18:27:59.247Z,100000.00
2023-05-11T18:31:04.028Z,99994.84
2023-05-11T18:34:07.340Z,100001.66
2023-05-11T18:37:10.206Z,100005.03
2023-05-11T18:40:13.718Z,100006.69
2023-05-11T18:43:16.439Z,100010.38
2023-05-11T18:46:21.515Z,100006.97
2023-05-11T18:49:24.769Z,100011.47
2023-05-11T18:52:27.593Z,100012.34
2023-05-11T18:55:35.469Z,100007.09
2023-05-11T18:58:41.153Z,100009.06
2023-05-11T19:01:48.021Z,100005.34
2023-05-11T19:04:51.425Z,100010.25
2023-05-11T19:07:54.207Z,100017.94
2023-05-11T19:10:56.984Z,100019.22
2023-05-11T19:13:59.700Z,100024.75
2023-05-11T19:17:04.624Z,100028.00
2023-05-11T19:20:09.397Z,100031.78
2023-05-11T19:23:12.128Z,100032.56
2023-05-11T19:26:14.970Z,100028.41
2023-05-11T19:29:19.487Z,100041.44
2023-05-11T19:32:23.885Z,100041.44
2023-05-11T19:35:28.255Z,100037.06
2023-05-11T19:38:31.110Z,100043.38
2023-05-11T19:41:34.308Z,100037.94
2023-05-11T19:44:43.211Z,100041.44
2023-05-11T19:47:47.535Z,100043.38
2023-05-11T19:50:50.283Z,100041.63
2023-05-11T19:53:53.776Z,100044.25
2023-05-11T19:56:59.809Z,100040.66
2023-05-11T20:00:05.466Z,100044.16
2023-05-11T20:03:09.635Z,100054.06
2023-05-11T20:06:12.410Z,100043.16
2023-05-11T20:09:15.077Z,100047.72
2023-05-11T20:12:17.799Z,100050.59
2023-05-11T20:15:21.138Z,100046.09
2023-05-11T20:18:25.239Z,100052.44
2023-05-11T20:21:28.175Z,100047.25
2023-05-11T20:24:31.186Z,100042.22
2023-05-11T20:27:33.946Z,100047.47
2023-05-11T20:30:37.307Z,100051.25
2023-05-11T20:36:53.707Z,100042.41
2023-05-11T20:39:56.410Z,100029.97
2023-05-11T20:42:59.092Z,100039.09
2023-05-11T20:46:03.841Z,100029.19
2023-05-11T20:49:08.025Z,100030.16
2023-05-11T20:52:11.167Z,100012.56
2023-05-11T20:55:13.870Z,100022.06
2023-05-11T20:58:16.512Z,100029.41
2023-05-11T21:01:19.363Z,100024.31
2023-05-11T21:04:23.468Z,100031.34
2023-05-11T21:07:28.169Z,100025.91
2023-05-11T21:10:30.913Z,100024.06
2023-05-11T21:13:33.548Z,100025.09
2023-05-11T21:16:36.194Z,100022.47
2023-05-11T21:19:40.201Z,100026.97
2023-05-11T21:22:42.848Z,100031.63
2023-05-11T21:25:45.634Z,100027.03
2023-05-11T21:28:48.250Z,100024.22
2023-05-11T21:31:50.943Z,100027.03
2023-05-11T21:34:55.084Z,100036.19
2023-05-11T21:37:57.732Z,100040.00
2023-05-11T21:41:00.454Z,100010.44
2023-05-11T21:44:03.143Z,100027.44
2023-05-11T21:47:06.507Z,100027.63
2023-05-11T21:50:11.764Z,100028.50
2023-05-11T21:53:14.454Z,100033.28
2023-05-11T21:56:17.267Z,100022.59
2023-05-11T21:59:20.186Z,100032.59
2023-05-11T22:02:22.968Z,100013.59
2023-05-11T22:05:27.046Z,100036.41
2023-05-11T22:08:29.788Z,100039.31
2023-05-11T22:11:34.605Z,100042.13
2023-05-11T22:14:37.315Z,100042.22
2023-05-11T22:17:40.442Z,100043.31
2023-05-11T22:20:44.516Z,100037.09
2023-05-11T22:23:47.264Z,100043.41
2023-05-11T22:26:49.913Z,100040.81
2023-05-11T22:29:53.217Z,100043.56
2023-05-11T22:32:55.946Z,100045.47
2023-05-11T22:35:59.974Z,100045.69
2023-05-11T22:39:02.815Z,100047.72
2023-05-11T22:42:05.766Z,100047.63
2023-05-11T22:45:09.594Z,100044.03
2023-05-11T22:48:12.315Z,100055.78
2023-05-11T22:51:16.643Z,100053.06
2023-05-11T22:54:19.358Z,100054.34
2023-05-11T22:57:24.147Z,100050.84
2023-05-11T23:00:27.408Z,100050.84
2023-05-11T23:03:30.288Z,100056.38
2023-05-11T23:06:34.606Z,100051.41
2023-05-11T23:09:37.317Z,100052.66
2023-05-11T23:12:40.184Z,100058.28
2023-05-11T23:15:42.869Z,100058.47
2023-05-11T23:18:46.922Z,100052.16
2023-05-11T23:21:51.194Z,100057.88
2023-05-11T23:24:56.371Z,100054.81
2023-05-11T23:27:59.248Z,100063.44
2023-05-11T23:31:02.519Z,100058.38
2023-05-11T23:34:05.193Z,100057.78
2023-05-11T23:37:09.304Z,100060.84
2023-05-11T23:40:12.602Z,100052.63
2023-05-11T23:43:15.730Z,100048.75
2023-05-11T23:46:18.413Z,100050.09
2023-05-11T23:49:21.076Z,100054.81
2023-05-11T23:52:25.276Z,100049.09
2023-05-11T23:55:27.937Z,100042.81
2023-05-11T23:58:30.657Z,100041.06
